createdAt,value
2022-09-09T00:00:28.547Z,3052
2022-09-09T00:02:28.837Z,2616
2022-09-09T00:03:28.664Z,3134
2022-09-09T00:04:28.577Z,3161
2022-09-09T00:05:28.611Z,2620
2022-09-09T00:07:28.766Z,3134
2022-09-09T00:08:28.575Z,2668
2022-09-09T00:09:28.621Z,3131
2022-09-09T00:10:28.551Z,3131
2022-09-09T00:12:28.777Z,2568
2022-09-09T00:13:28.652Z,2668
2022-09-09T00:14:28.561Z,3131
2022-09-09T00:15:28.681Z,2603
2022-09-09T00:17:28.767Z,3062
2022-09-09T00:18:28.614Z,2704
2022-09-09T00:19:28.623Z,2576
2022-09-09T00:20:28.559Z,2555
2022-09-09T00:22:28.756Z,2534
2022-09-09T00:23:28.563Z,2668
2022-09-09T00:24:28.586Z,2207
2022-09-09T00:25:28.631Z,2625
2022-09-09T00:27:28.763Z,2019
2022-09-09T00:28:28.593Z,2514
2022-09-09T00:29:28.638Z,2152
2022-09-09T00:30:28.565Z,2497
2022-09-09T00:32:28.774Z,2313
2022-09-09T00:33:28.619Z,2601
2022-09-09T00:34:28.573Z,2172
2022-09-09T00:35:28.567Z,2541
2022-09-09T00:37:28.775Z,2611
2022-09-09T00:38:28.656Z,2374
2022-09-09T00:39:28.572Z,2208
2022-09-09T00:40:28.612Z,2494
2022-09-09T00:42:28.763Z,2172
2022-09-09T00:43:28.573Z,2208
2022-09-09T00:44:28.638Z,2553
2022-09-09T00:45:28.660Z,2180
2022-09-09T00:47:28.759Z,2576
2022-09-09T00:48:28.642Z,2251
2022-09-09T00:49:28.636Z,2272
2022-09-09T00:50:28.646Z,2601
2022-09-09T00:52:28.748Z,2650
2022-09-09T00:53:28.579Z,2650
2022-09-09T00:54:28.586Z,2618
2022-09-09T00:55:28.578Z,2618
2022-09-09T00:57:28.782Z,2445
2022-09-09T00:58:28.645Z,2593
2022-09-09T00:59:28.713Z,2036
2022-09-09T01:00:28.586Z,2208
2022-09-09T01:02:28.809Z,2603
2022-09-09T01:03:28.632Z,2062
2022-09-09T01:04:28.635Z,2246
2022-09-09T01:05:28.602Z,2645
2022-09-09T01:07:28.766Z,2676
2022-09-09T01:08:28.668Z,2311
2022-09-09T01:09:28.590Z,2710
2022-09-09T01:10:28.655Z,2650
2022-09-09T01:12:28.794Z,2710
2022-09-09T01:13:28.649Z,2514
2022-09-09T01:14:28.615Z,2689
2022-09-09T01:15:28.601Z,2744
2022-09-09T01:17:28.771Z,2755
2022-09-09T01:18:28.603Z,2683
2022-09-09T01:19:28.602Z,2744
2022-09-09T01:20:28.601Z,2428
2022-09-09T01:22:28.793Z,2683
2022-09-09T01:23:28.655Z,2408
2022-09-09T01:24:28.670Z,2359
2022-09-09T01:25:28.664Z,2397
2022-09-09T01:27:28.800Z,2114
2022-09-09T01:28:28.662Z,2739
2022-09-09T01:29:28.647Z,2704
2022-09-09T01:30:28.639Z,2770
2022-09-09T01:32:28.805Z,2710
2022-09-09T01:33:28.598Z,2697
2022-09-09T01:34:28.612Z,2199
2022-09-09T01:35:28.643Z,2317
2022-09-09T01:37:28.802Z,2709
2022-09-09T01:38:28.673Z,2785
2022-09-09T01:39:28.657Z,2304
2022-09-09T01:40:28.614Z,2770
2022-09-09T01:42:28.791Z,2345
2022-09-09T01:43:28.608Z,2332
2022-09-09T01:44:28.606Z,2744
2022-09-09T01:45:28.620Z,2777
2022-09-09T01:47:28.778Z,2388
2022-09-09T01:48:28.742Z,2386
2022-09-09T01:49:28.610Z,2525
2022-09-09T01:50:28.625Z,2525
2022-09-09T01:52:28.815Z,2421
2022-09-09T01:53:28.673Z,2342
2022-09-09T01:54:28.674Z,2659
2022-09-09T01:55:28.680Z,2724
2022-09-09T01:57:28.816Z,2342
2022-09-09T01:58:28.632Z,2208
2022-09-09T01:59:28.670Z,2363
2022-09-09T02:00:28.637Z,2777
2022-09-09T02:02:28.841Z,2788
2022-09-09T02:03:28.667Z,2291
2022-09-09T02:04:28.704Z,2300
2022-09-09T02:05:28.709Z,2311
2022-09-09T02:07:28.873Z,2283
2022-09-09T02:08:28.706Z,2659
2022-09-09T02:09:28.619Z,2659
2022-09-09T02:10:28.644Z,2359
2022-09-09T02:12:28.872Z,2724
2022-09-09T02:13:28.642Z,2704
2022-09-09T02:14:28.618Z,2357
2022-09-09T02:15:28.634Z,2409
2022-09-09T02:17:28.871Z,2261
2022-09-09T02:18:28.679Z,2710
2022-09-09T02:19:28.621Z,2710
2022-09-09T02:20:31.395Z,2345
2022-09-09T02:22:28.829Z,2704
2022-09-09T02:23:28.668Z,2311
2022-09-09T02:24:28.625Z,2317
2022-09-09T02:25:28.683Z,2724
2022-09-09T02:27:28.834Z,2709
2022-09-09T02:28:28.687Z,2324
2022-09-09T02:29:28.689Z,2676
2022-09-09T02:30:28.704Z,2158
2022-09-09T02:32:28.875Z,2409
2022-09-09T02:33:28.683Z,2676
2022-09-09T02:34:28.621Z,2324
2022-09-09T02:35:28.676Z,2724
2022-09-09T02:37:28.813Z,2272
2022-09-09T02:38:28.752Z,2683
2022-09-09T02:39:28.699Z,2287
2022-09-09T02:40:28.703Z,2294
2022-09-09T02:42:28.884Z,2694
2022-09-09T02:43:28.671Z,2618
2022-09-09T02:44:28.689Z,2317
2022-09-09T02:45:28.747Z,2291
2022-09-09T02:47:28.849Z,2645
2022-09-09T02:48:28.746Z,2278
2022-09-09T02:49:28.701Z,2676
2022-09-09T02:50:28.631Z,2710
2022-09-09T02:52:28.858Z,2739
2022-09-09T02:53:28.697Z,2616
2022-09-09T02:54:28.726Z,2596
2022-09-09T02:55:28.733Z,2659
2022-09-09T02:57:28.846Z,2645
2022-09-09T02:58:28.747Z,2180
2022-09-09T02:59:28.707Z,2586
2022-09-09T03:00:28.657Z,2466
2022-09-09T03:02:28.874Z,2616
2022-09-09T03:03:28.706Z,2732
2022-09-09T03:04:28.699Z,2724
2022-09-09T03:05:28.728Z,2349
2022-09-09T03:07:28.849Z,2724
2022-09-09T03:08:28.804Z,2291
2022-09-09T03:09:28.644Z,2353
2022-09-09T03:10:28.703Z,2697
2022-09-09T03:12:28.850Z,2697
2022-09-09T03:13:28.710Z,2804
2022-09-09T03:14:28.669Z,2365
2022-09-09T03:15:28.715Z,2697
2022-09-09T03:17:28.825Z,2473
2022-09-09T03:18:28.757Z,2240
2022-09-09T03:19:28.661Z,2380
2022-09-09T03:20:28.655Z,2727
2022-09-09T03:22:28.909Z,2324
2022-09-09T03:23:28.666Z,2158
2022-09-09T03:24:28.649Z,2661
2022-09-09T03:25:28.669Z,2591
2022-09-09T03:27:28.859Z,2345
2022-09-09T03:28:28.827Z,2300
2022-09-09T03:29:28.717Z,2345
2022-09-09T03:30:28.733Z,2697
2022-09-09T03:32:28.830Z,2727
2022-09-09T03:33:28.716Z,2489
2022-09-09T03:34:28.724Z,2603
2022-09-09T03:35:28.723Z,2408
2022-09-09T03:37:28.859Z,2645
2022-09-09T03:38:28.728Z,2632
2022-09-09T03:39:28.722Z,2283
2022-09-09T03:40:28.659Z,2632
2022-09-09T03:42:28.873Z,2263
2022-09-09T03:43:28.734Z,2291
2022-09-09T03:44:28.678Z,2666
2022-09-09T03:45:28.706Z,2618
2022-09-09T03:47:28.879Z,2263
2022-09-09T03:48:28.729Z,2632
2022-09-09T03:49:28.685Z,2313
2022-09-09T03:50:28.729Z,2345
2022-09-09T03:52:28.878Z,2661
2022-09-09T03:53:28.756Z,2661
2022-09-09T03:54:28.689Z,2345
2022-09-09T03:55:28.668Z,2409
2022-09-09T03:57:28.875Z,2304
2022-09-09T03:58:28.685Z,2676
2022-09-09T03:59:28.711Z,2676
2022-09-09T04:00:28.671Z,2278
2022-09-09T04:02:28.931Z,2661
2022-09-09T04:03:28.806Z,2489
2022-09-09T04:04:28.750Z,2586
2022-09-09T04:05:28.695Z,2618
2022-09-09T04:07:28.891Z,2272
2022-09-09T04:08:28.826Z,2300
2022-09-09T04:09:28.744Z,2408
2022-09-09T04:10:28.678Z,2632
2022-09-09T04:12:28.873Z,2180
2022-09-09T04:13:28.683Z,2777
2022-09-09T04:14:28.682Z,2408
2022-09-09T04:15:28.765Z,2777
2022-09-09T04:17:28.892Z,2799
2022-09-09T04:18:28.685Z,2098
2022-09-09T04:19:28.689Z,2709
2022-09-09T04:20:28.701Z,2445
2022-09-09T04:22:28.910Z,2530
2022-09-09T04:23:28.745Z,2394
2022-09-09T04:24:28.702Z,2804
2022-09-09T04:25:28.751Z,2785
2022-09-09T04:27:28.883Z,2836
2022-09-09T04:28:28.705Z,2313
2022-09-09T04:29:28.731Z,2770
2022-09-09T04:30:28.747Z,2345
2022-09-09T04:32:28.870Z,2755
2022-09-09T04:33:28.697Z,2428
2022-09-09T04:34:28.699Z,2349
2022-09-09T04:35:28.750Z,2134
2022-09-09T04:37:28.894Z,2374
2022-09-09T04:38:28.816Z,2208
2022-09-09T04:39:28.704Z,2777
2022-09-09T04:40:28.811Z,2342
2022-09-09T04:42:28.904Z,2760
2022-09-09T04:43:28.782Z,2744
2022-09-09T04:44:28.756Z,2724
2022-09-09T04:45:28.814Z,2777
2022-09-09T04:47:28.875Z,2694
2022-09-09T04:48:28.814Z,2739
2022-09-09T04:49:28.705Z,2724
2022-09-09T04:50:28.757Z,2739
2022-09-09T04:52:28.910Z,2074
2022-09-09T04:53:28.755Z,2332
2022-09-09T04:54:28.705Z,2744
2022-09-09T04:55:28.713Z,2702
2022-09-09T04:57:28.880Z,2630
2022-09-09T04:58:28.824Z,2666
2022-09-09T04:59:28.791Z,2240
2022-09-09T05:00:28.779Z,2240
2022-09-09T05:02:31.526Z,2556
2022-09-09T05:03:28.733Z,2408
2022-09-09T05:04:28.709Z,2518
2022-09-09T05:05:28.769Z,2418
2022-09-09T05:07:28.973Z,2036
2022-09-09T05:08:28.856Z,2212
2022-09-09T05:09:28.733Z,2158
2022-09-09T05:10:28.711Z,2197
2022-09-09T05:12:28.916Z,2541
2022-09-09T05:13:28.709Z,2144
2022-09-09T05:14:28.793Z,2591
2022-09-09T05:15:28.782Z,2553
2022-09-09T05:17:28.906Z,2541
2022-09-09T05:18:28.730Z,2442
2022-09-09T05:19:28.718Z,2618
2022-09-09T05:20:28.772Z,2666
2022-09-09T05:22:28.930Z,2263
2022-09-09T05:23:28.717Z,2168
2022-09-09T05:24:28.757Z,2232
2022-09-09T05:25:28.780Z,2320
2022-09-09T05:27:28.918Z,2187
2022-09-09T05:28:28.830Z,2666
2022-09-09T05:29:28.779Z,2640
2022-09-09T05:30:28.716Z,2544
2022-09-09T05:32:28.934Z,2158
2022-09-09T05:33:28.780Z,2518
2022-09-09T05:34:28.790Z,2485
2022-09-09T05:35:28.740Z,2132
2022-09-09T05:37:28.892Z,1915
2022-09-09T05:38:28.972Z,2569
2022-09-09T05:39:28.736Z,2534
2022-09-09T05:40:28.744Z,2251
2022-09-09T05:42:28.944Z,2601
2022-09-09T05:43:28.730Z,2257
2022-09-09T05:44:28.740Z,2193
2022-09-09T05:45:28.742Z,2611
2022-09-09T05:47:28.906Z,2640
2022-09-09T05:48:28.737Z,2661
2022-09-09T05:49:28.797Z,2208
2022-09-09T05:50:31.492Z,2251
2022-09-09T05:52:28.922Z,2203
2022-09-09T05:53:28.738Z,2272
2022-09-09T05:54:28.744Z,2054
2022-09-09T05:55:28.807Z,2640
2022-09-09T05:57:28.934Z,2242
2022-09-09T05:58:28.845Z,2661
2022-09-09T05:59:28.792Z,2747
2022-09-09T06:00:28.742Z,2630
2022-09-09T06:02:29.135Z,2583
2022-09-09T06:03:28.795Z,2332
2022-09-09T06:04:28.796Z,2744
2022-09-09T06:05:28.751Z,2659
2022-09-09T06:07:28.979Z,2311
2022-09-09T06:08:28.800Z,2220
2022-09-09T06:09:28.740Z,2311
2022-09-09T06:10:28.803Z,2676
2022-09-09T06:12:29.002Z,2311
2022-09-09T06:13:28.803Z,2320
2022-09-09T06:14:28.740Z,2704
2022-09-09T06:15:28.764Z,2724
2022-09-09T06:17:28.957Z,2338
2022-09-09T06:18:28.749Z,2661
2022-09-09T06:19:28.751Z,2630
2022-09-09T06:20:28.744Z,2307
2022-09-09T06:22:28.964Z,2068
2022-09-09T06:23:28.747Z,2583
2022-09-09T06:24:28.755Z,2534
2022-09-09T06:25:28.753Z,2485
2022-09-09T06:27:28.963Z,2497
2022-09-09T06:28:28.769Z,2578
2022-09-09T06:29:28.749Z,2272
2022-09-09T06:30:28.758Z,2556
2022-09-09T06:32:28.934Z,2168
2022-09-09T06:33:28.778Z,2611
2022-09-09T06:34:28.760Z,2232
2022-09-09T06:35:28.774Z,2242
2022-09-09T06:37:28.962Z,2242
2022-09-09T06:38:28.835Z,1912
2022-09-09T06:39:28.753Z,2501
2022-09-09T06:40:28.758Z,2380
2022-09-09T06:42:28.975Z,2218
2022-09-09T06:43:28.838Z,2537
2022-09-09T06:44:31.189Z,2525
2022-09-09T06:45:28.845Z,2251
2022-09-09T06:47:28.970Z,2148
2022-09-09T06:48:28.797Z,2098
2022-09-09T06:49:28.779Z,2118
2022-09-09T06:50:28.767Z,2452
2022-09-09T06:52:28.970Z,2494
2022-09-09T06:53:30.749Z,2118
2022-09-09T06:54:28.774Z,2388
2022-09-09T06:55:28.822Z,2122
2022-09-09T06:57:36.721Z,2480
2022-09-09T06:58:28.825Z,1925
2022-09-09T06:59:28.828Z,2485
2022-09-09T07:00:28.825Z,2098
2022-09-09T07:02:29.010Z,2408
2022-09-09T07:03:28.834Z,2386
2022-09-09T07:04:28.775Z,2287
2022-09-09T07:05:28.773Z,2090
2022-09-09T07:07:28.961Z,2442
2022-09-09T07:08:28.841Z,2376
2022-09-09T07:09:28.795Z,2242
2022-09-09T07:10:28.831Z,2432
2022-09-09T07:12:29.029Z,2014
2022-09-09T07:13:28.862Z,2365
2022-09-09T07:14:28.826Z,2282
2022-09-09T07:15:28.769Z,1970
2022-09-09T07:17:28.995Z,2307
2022-09-09T07:18:28.836Z,2359
2022-09-09T07:19:28.782Z,2349
2022-09-09T07:20:28.781Z,2014
2022-09-09T07:22:28.972Z,1991
2022-09-09T07:23:30.590Z,2298
2022-09-09T07:24:28.843Z,2140
2022-09-09T07:25:28.780Z,2365
2022-09-09T07:27:28.995Z,2359
2022-09-09T07:28:28.804Z,2132
2022-09-09T07:29:28.909Z,1947
2022-09-09T07:30:28.880Z,1991
2022-09-09T07:32:28.994Z,2320
2022-09-09T07:33:28.813Z,2036
2022-09-09T07:34:28.868Z,2332
2022-09-09T07:35:28.789Z,2294
2022-09-09T07:37:28.968Z,1977
2022-09-09T07:38:28.839Z,1947
2022-09-09T07:39:28.792Z,1904
2022-09-09T07:40:28.792Z,1825
2022-09-09T07:42:29.061Z,1748
2022-09-09T07:43:28.845Z,1922
2022-09-09T07:44:28.857Z,2261
2022-09-09T07:45:28.806Z,2282
2022-09-09T07:47:28.987Z,2287
2022-09-09T07:48:28.799Z,1858
2022-09-09T07:49:32.703Z,2144
2022-09-09T07:50:28.805Z,2197
2022-09-09T07:52:29.049Z,1830
2022-09-09T07:53:28.851Z,2152
2022-09-09T07:54:28.857Z,2152
2022-09-09T07:55:28.867Z,1762
2022-09-09T07:57:28.993Z,2158
2022-09-09T07:58:28.875Z,2062
2022-09-09T07:59:28.875Z,1614
2022-09-09T08:00:28.869Z,1711
2022-09-09T08:02:29.052Z,1679
2022-09-09T08:03:29.388Z,2001
2022-09-09T08:04:28.797Z,1994
2022-09-09T08:05:28.801Z,1694
2022-09-09T08:07:29.002Z,1694
2022-09-09T08:08:28.868Z,1851
2022-09-09T08:09:28.881Z,1738
2022-09-09T08:10:28.832Z,1609
2022-09-09T08:12:29.109Z,1726
2022-09-09T08:13:28.857Z,1779
2022-09-09T08:14:28.871Z,1398
2022-09-09T08:15:28.818Z,1513
2022-09-09T08:17:29.042Z,1706
2022-09-09T08:18:28.859Z,1830
2022-09-09T08:19:28.809Z,1822
2022-09-09T08:20:28.813Z,1779
2022-09-09T08:22:29.016Z,1779
2022-09-09T08:23:28.819Z,1762
2022-09-09T08:24:28.903Z,1515
2022-09-09T08:25:28.908Z,1604
2022-09-09T08:27:29.066Z,1726
2022-09-09T08:28:28.886Z,1515
2022-09-09T08:29:28.809Z,1470
2022-09-09T08:30:28.829Z,1504
2022-09-09T08:32:28.991Z,1653
2022-09-09T08:33:28.842Z,1352
2022-09-09T08:34:28.817Z,1558
2022-09-09T08:35:28.815Z,1248
2022-09-09T08:37:29.020Z,1549
2022-09-09T08:38:28.841Z,1333
2022-09-09T08:39:28.843Z,1497
2022-09-09T08:40:28.822Z,1526
2022-09-09T08:42:29.081Z,1310
2022-09-09T08:43:28.845Z,1581
2022-09-09T08:44:28.855Z,1409
2022-09-09T08:45:28.885Z,1544
2022-09-09T08:47:33.205Z,1176
2022-09-09T08:48:28.833Z,1415
2022-09-09T08:49:28.821Z,1246
2022-09-09T08:50:28.827Z,1465
2022-09-09T08:52:29.036Z,1429
2022-09-09T08:53:28.831Z,1400
2022-09-09T08:54:48.699Z,1190
2022-09-09T08:55:28.821Z,1269
2022-09-09T08:57:29.008Z,1127
2022-09-09T08:58:28.841Z,1374
2022-09-09T08:59:28.829Z,1336
2022-09-09T09:00:28.829Z,1097
2022-09-09T09:02:29.048Z,1154
2022-09-09T09:03:28.895Z,1284
2022-09-09T09:04:28.938Z,1146
2022-09-09T09:05:28.894Z,1345
2022-09-09T09:07:32.656Z,1173
2022-09-09T09:08:28.946Z,1304
2022-09-09T09:09:28.930Z,1126
2022-09-09T09:10:40.323Z,1304
2022-09-09T09:12:29.043Z,1301
2022-09-09T09:13:28.901Z,1289
2022-09-09T09:15:29.519Z,1149
2022-09-09T09:17:29.048Z,1176
2022-09-09T09:18:28.902Z,1261
2022-09-09T09:19:28.843Z,1081
2022-09-09T09:20:28.859Z,1261
2022-09-09T09:22:29.042Z,1234
2022-09-09T09:23:28.882Z,1223
2022-09-09T09:24:28.912Z,1170
2022-09-09T09:25:28.913Z,1187
2022-09-09T09:27:29.048Z,1201
2022-09-09T09:28:28.906Z,1180
2022-09-09T09:29:28.919Z,990
2022-09-09T09:30:30.198Z,1154
2022-09-09T09:32:29.055Z,1094
2022-09-09T09:33:28.842Z,1131
2022-09-09T09:34:28.847Z,977
2022-09-09T09:35:28.859Z,1138
2022-09-09T09:37:29.138Z,955
2022-09-09T09:40:28.915Z,1156
2022-09-09T09:42:29.037Z,1126
2022-09-09T09:43:28.869Z,983
2022-09-09T09:44:28.878Z,1060
2022-09-09T09:45:28.866Z,1133
2022-09-09T09:47:29.058Z,950
2022-09-09T09:48:28.936Z,1147
2022-09-09T09:49:28.917Z,1147
2022-09-09T09:50:28.926Z,965
2022-09-09T09:52:29.053Z,939
2022-09-09T09:53:28.944Z,952
2022-09-09T09:54:28.865Z,1109
2022-09-09T09:55:28.866Z,1099
2022-09-09T09:57:29.043Z,1109
2022-09-09T09:58:28.878Z,1070
2022-09-09T09:59:39.045Z,1063
2022-09-09T10:00:28.953Z,888
2022-09-09T10:02:29.059Z,851
2022-09-09T10:03:28.933Z,1057
2022-09-09T10:04:28.962Z,1051
2022-09-09T10:05:31.632Z,910
2022-09-09T10:07:29.065Z,1004
2022-09-09T10:08:28.919Z,1034
2022-09-09T10:09:28.960Z,1017
2022-09-09T10:10:28.958Z,1012
2022-09-09T10:12:29.056Z,946
2022-09-09T10:13:28.886Z,776
2022-09-09T10:14:28.870Z,947
2022-09-09T10:15:28.910Z,795
2022-09-09T10:17:29.046Z,966
2022-09-09T10:18:29.054Z,897
2022-09-09T10:19:28.876Z,897
2022-09-09T10:20:28.884Z,910
2022-09-09T10:22:29.077Z,754
2022-09-09T10:23:28.876Z,892
2022-09-09T10:24:28.882Z,781
2022-09-09T10:25:28.882Z,854
2022-09-09T10:27:29.089Z,923
2022-09-09T10:28:28.929Z,829
2022-09-09T10:29:28.874Z,730
2022-09-09T10:30:28.884Z,805
2022-09-09T10:32:29.053Z,868
2022-09-09T10:33:28.925Z,883
2022-09-09T10:34:29.832Z,857
2022-09-09T10:35:28.889Z,747
2022-09-09T10:37:29.091Z,864
2022-09-09T10:38:28.947Z,844
2022-09-09T10:39:28.884Z,710
2022-09-09T10:40:28.902Z,810
2022-09-09T10:42:29.092Z,834
2022-09-09T10:43:29.045Z,704
2022-09-09T10:44:28.952Z,829
2022-09-09T10:45:28.979Z,726
2022-09-09T10:47:29.114Z,715
2022-09-09T10:48:28.959Z,773
2022-09-09T10:49:28.950Z,814
2022-09-09T10:50:43.490Z,833
2022-09-09T10:52:29.103Z,694
2022-09-09T10:53:28.957Z,831
2022-09-09T10:54:28.902Z,690
2022-09-09T10:55:29.979Z,800
2022-09-09T10:57:29.083Z,815
2022-09-09T10:58:28.891Z,799
2022-09-09T10:59:28.923Z,673
2022-09-09T11:00:28.896Z,813
2022-09-09T11:02:29.078Z,863
2022-09-09T11:03:28.939Z,673
2022-09-09T11:04:28.927Z,827
2022-09-09T11:05:28.921Z,817
2022-09-09T11:07:29.116Z,826
2022-09-09T11:08:28.966Z,720
2022-09-09T11:09:28.977Z,812
2022-09-09T11:10:28.998Z,742
2022-09-09T11:12:29.111Z,813
2022-09-09T11:13:28.968Z,812
2022-09-09T11:14:28.903Z,701
2022-09-09T11:15:28.930Z,839
2022-09-09T11:17:29.126Z,842
2022-09-09T11:18:28.903Z,808
2022-09-09T11:19:28.913Z,705
2022-09-09T11:20:28.914Z,827
2022-09-09T11:22:29.113Z,806
2022-09-09T11:23:28.902Z,703
2022-09-09T11:24:28.955Z,847
2022-09-09T11:25:28.918Z,871
2022-09-09T11:27:29.096Z,739
2022-09-09T11:28:29.052Z,810
2022-09-09T11:29:28.975Z,736
2022-09-09T11:30:44.499Z,780
2022-09-09T11:32:29.170Z,701
2022-09-09T11:33:28.977Z,856
2022-09-09T11:34:28.982Z,846
2022-09-09T11:35:28.919Z,872
2022-09-09T11:37:29.118Z,728
2022-09-09T11:38:28.944Z,732
2022-09-09T11:39:28.975Z,854
2022-09-09T11:40:29.016Z,733
2022-09-09T11:42:29.154Z,718
2022-09-09T11:43:28.986Z,856
2022-09-09T11:44:28.951Z,835
2022-09-09T11:45:28.931Z,732
2022-09-09T11:47:29.122Z,740
2022-09-09T11:48:28.928Z,830
2022-09-09T11:49:28.928Z,826
2022-09-09T11:50:29.010Z,810
2022-09-09T11:52:29.133Z,805
2022-09-09T11:53:28.999Z,853
2022-09-09T11:54:28.992Z,842
2022-09-09T11:55:28.983Z,740
2022-09-09T11:57:29.136Z,880
2022-09-09T11:58:28.934Z,833
2022-09-09T11:59:28.929Z,811
2022-09-09T12:00:28.993Z,702
2022-09-09T12:02:29.238Z,696
2022-09-09T12:03:28.959Z,809
2022-09-09T12:04:29.016Z,799
2022-09-09T12:05:28.953Z,708
2022-09-09T12:07:29.151Z,714
2022-09-09T12:08:28.950Z,825
2022-09-09T12:09:29.023Z,733
2022-09-09T12:10:29.006Z,828
2022-09-09T12:12:29.116Z,882
2022-09-09T12:13:28.956Z,733
2022-09-09T12:14:28.936Z,846
2022-09-09T12:15:29.007Z,759
2022-09-09T12:17:29.150Z,730
2022-09-09T12:18:29.004Z,905
2022-09-09T12:19:29.005Z,844
2022-09-09T12:20:29.010Z,798
2022-09-09T12:22:29.153Z,814
2022-09-09T12:23:28.953Z,926
2022-09-09T12:24:28.961Z,939
2022-09-09T12:25:28.941Z,795
2022-09-09T12:27:29.772Z,998
2022-09-09T12:28:28.951Z,895
2022-09-09T12:29:28.954Z,923
2022-09-09T12:30:29.001Z,933
2022-09-09T12:32:29.144Z,904
2022-09-09T12:33:28.980Z,982
2022-09-09T12:34:29.036Z,969
2022-09-09T12:35:29.026Z,1029
2022-09-09T12:37:29.252Z,882
2022-09-09T12:38:29.010Z,1116
2022-09-09T12:39:29.014Z,1063
2022-09-09T12:40:28.967Z,934
2022-09-09T12:42:29.128Z,1187
2022-09-09T12:43:28.951Z,982
2022-09-09T12:44:29.009Z,946
2022-09-09T12:45:28.955Z,1122
2022-09-09T12:47:30.349Z,1146
2022-09-09T12:48:29.028Z,1179
2022-09-09T12:49:29.030Z,988
2022-09-09T12:50:29.045Z,930
2022-09-09T12:52:29.213Z,1055
2022-09-09T12:53:28.980Z,817
2022-09-09T12:54:28.966Z,809
2022-09-09T12:55:28.973Z,934
2022-09-09T12:57:29.154Z,896
2022-09-09T12:58:28.973Z,928
2022-09-09T12:59:28.957Z,908
2022-09-09T13:00:29.025Z,881
2022-09-09T13:02:29.272Z,726
2022-09-09T13:03:29.036Z,733
2022-09-09T13:04:29.037Z,666
2022-09-09T13:05:29.043Z,647
2022-09-09T13:07:29.218Z,774
2022-09-09T13:08:28.985Z,787
2022-09-09T13:09:28.972Z,770
2022-09-09T13:10:36.508Z,777
2022-09-09T13:12:29.165Z,763
2022-09-09T13:13:29.029Z,634
2022-09-09T13:14:29.033Z,746
2022-09-09T13:15:29.043Z,761
2022-09-09T13:17:29.173Z,620
2022-09-09T13:18:28.979Z,614
2022-09-09T13:19:28.987Z,714
2022-09-09T13:20:29.065Z,730
2022-09-09T13:22:29.204Z,632
2022-09-09T13:23:29.044Z,740
2022-09-09T13:24:29.041Z,624
2022-09-09T13:25:29.047Z,757
2022-09-09T13:27:29.164Z,617
2022-09-09T13:28:33.550Z,735
2022-09-09T13:29:28.983Z,610
2022-09-09T13:30:29.056Z,727
2022-09-09T13:32:29.179Z,588
2022-09-09T13:33:28.991Z,637
2022-09-09T13:34:29.013Z,540
2022-09-09T13:35:29.021Z,651
2022-09-09T13:37:29.242Z,657
2022-09-09T13:38:29.056Z,669
2022-09-09T13:39:29.052Z,659
2022-09-09T13:40:28.994Z,653
2022-09-09T13:42:29.196Z,611
2022-09-09T13:43:29.129Z,653
2022-09-09T13:44:29.057Z,686
2022-09-09T13:45:29.051Z,689
2022-09-09T13:47:29.198Z,705
2022-09-09T13:48:29.047Z,720
2022-09-09T13:49:29.049Z,753
2022-09-09T13:50:28.994Z,568
2022-09-09T13:52:29.180Z,746
2022-09-09T13:53:29.022Z,653
2022-09-09T13:54:29.026Z,666
2022-09-09T13:55:29.081Z,787
2022-09-09T13:57:29.228Z,668
2022-09-09T13:58:29.001Z,711
2022-09-09T13:59:47.959Z,607
2022-09-09T14:00:29.010Z,733
2022-09-09T14:02:29.220Z,640
2022-09-09T14:03:29.027Z,727
2022-09-09T14:04:29.051Z,618
2022-09-09T14:05:29.067Z,651
2022-09-09T14:07:29.207Z,819
2022-09-09T14:08:29.071Z,795
2022-09-09T14:09:29.007Z,815
2022-09-09T14:10:29.072Z,843
2022-09-09T14:12:29.185Z,894
2022-09-09T14:13:29.030Z,872
2022-09-09T14:14:29.070Z,888
2022-09-09T14:15:29.069Z,924
2022-09-09T14:17:29.223Z,969
2022-09-09T14:18:29.014Z,1008
2022-09-09T14:19:29.007Z,1014
2022-09-09T14:20:29.020Z,1048
2022-09-09T14:22:29.235Z,1127
2022-09-09T14:23:29.076Z,1199
2022-09-09T14:24:29.014Z,870
2022-09-09T14:25:29.017Z,1225
2022-09-09T14:27:29.201Z,1282
2022-09-09T14:28:54.685Z,1116
2022-09-09T14:29:29.115Z,1077
2022-09-09T14:30:29.259Z,1094
2022-09-09T14:32:29.198Z,1333
2022-09-09T14:33:29.021Z,1114
2022-09-09T14:34:29.025Z,1060
2022-09-09T14:35:29.051Z,1078
2022-09-09T14:37:29.303Z,1083
2022-09-09T14:38:29.112Z,1068
2022-09-09T14:39:29.030Z,1119
2022-09-09T14:40:29.396Z,1029
2022-09-09T14:42:29.234Z,1201
2022-09-09T14:43:29.022Z,1271
2022-09-09T14:44:29.092Z,1258
2022-09-09T14:45:29.099Z,1231
2022-09-09T14:47:29.220Z,1173
2022-09-09T14:48:29.113Z,1144
2022-09-09T14:49:29.129Z,1144
2022-09-09T14:50:29.084Z,1131
2022-09-09T14:52:29.210Z,1131
2022-09-09T14:53:29.047Z,910
2022-09-09T14:54:29.031Z,965
2022-09-09T14:55:29.094Z,1077
2022-09-09T14:57:29.241Z,901
2022-09-09T14:58:31.812Z,1044
2022-09-09T14:59:29.033Z,1041
2022-09-09T15:00:29.059Z,1060
2022-09-09T15:02:29.250Z,1078
2022-09-09T15:03:29.044Z,1048
2022-09-09T15:04:29.129Z,1062
2022-09-09T15:05:29.109Z,1029
2022-09-09T15:07:29.250Z,1038
2022-09-09T15:08:29.055Z,1157
2022-09-09T15:09:29.043Z,1131
2022-09-09T15:10:29.094Z,895
2022-09-09T15:12:29.251Z,1124
2022-09-09T15:13:29.214Z,1099
2022-09-09T15:14:29.106Z,1062
2022-09-09T15:15:29.065Z,1044
2022-09-09T15:17:29.228Z,981
2022-09-09T15:18:29.039Z,826
2022-09-09T15:19:29.081Z,939
2022-09-09T15:20:29.058Z,921
2022-09-09T15:22:29.256Z,665
2022-09-09T15:23:29.065Z,882
2022-09-09T15:24:29.113Z,844
2022-09-09T15:25:29.120Z,796
2022-09-09T15:27:29.253Z,933
2022-09-09T15:28:29.069Z,726
2022-09-09T15:29:29.051Z,743
2022-09-09T15:30:29.071Z,891
2022-09-09T15:32:29.261Z,909
2022-09-09T15:33:29.114Z,857
2022-09-09T15:34:29.122Z,863
2022-09-09T15:35:29.119Z,876
2022-09-09T15:37:29.240Z,871
2022-09-09T15:38:29.059Z,851
2022-09-09T15:39:29.101Z,827
2022-09-09T15:40:29.156Z,847
2022-09-09T15:42:29.275Z,829
2022-09-09T15:43:29.130Z,883
2022-09-09T15:44:29.061Z,717
2022-09-09T15:45:29.154Z,834
2022-09-09T15:47:29.278Z,843
2022-09-09T15:48:29.115Z,685
2022-09-09T15:49:29.073Z,816
2022-09-09T15:50:29.060Z,809
2022-09-09T15:52:29.272Z,656
2022-09-09T15:53:29.125Z,804
2022-09-09T15:54:29.093Z,665
2022-09-09T15:55:29.130Z,773
2022-09-09T15:57:29.247Z,748
2022-09-09T15:58:29.650Z,735
2022-09-09T15:59:29.069Z,742
2022-09-09T16:00:29.131Z,591
2022-09-09T16:02:29.296Z,664
2022-09-09T16:03:29.072Z,578
2022-09-09T16:04:29.127Z,620
2022-09-09T16:05:29.101Z,642
2022-09-09T16:07:29.275Z,508
2022-09-09T16:08:29.135Z,636
2022-09-09T16:09:29.079Z,595
2022-09-09T16:10:29.145Z,598
2022-09-09T16:12:29.280Z,552
2022-09-09T16:13:29.136Z,598
2022-09-09T16:14:29.145Z,572
2022-09-09T16:15:29.079Z,552
2022-09-09T16:17:29.289Z,439
2022-09-09T16:18:29.141Z,584
2022-09-09T16:19:29.149Z,480
2022-09-09T16:20:29.110Z,550
2022-09-09T16:22:29.265Z,542
2022-09-09T16:23:29.153Z,488
2022-09-09T16:24:29.156Z,567
2022-09-09T16:25:29.140Z,591
2022-09-09T16:27:29.271Z,516
2022-09-09T16:28:29.088Z,459
2022-09-09T16:29:29.174Z,542
2022-09-09T16:30:29.115Z,552
2022-09-09T16:32:29.267Z,553
2022-09-09T16:33:29.103Z,574
2022-09-09T16:34:29.153Z,575
2022-09-09T16:35:29.166Z,637
2022-09-09T16:37:29.278Z,603
2022-09-09T16:38:29.092Z,539
2022-09-09T16:39:29.157Z,638
2022-09-09T16:40:29.117Z,643
2022-09-09T16:42:29.327Z,649
2022-09-09T16:43:29.102Z,578
2022-09-09T16:44:29.107Z,600
2022-09-09T16:45:29.156Z,607
2022-09-09T16:47:29.310Z,751
2022-09-09T16:48:29.178Z,793
2022-09-09T16:49:29.157Z,803
2022-09-09T16:50:29.188Z,668
2022-09-09T16:52:29.305Z,815
2022-09-09T16:53:29.124Z,706